^^
NorthLandsweather Station Historical Data
 
Daily Summary for February 24, 2018 Units:  English    Metric   Both
Daily Weekly Monthly Yearly Custom
  Current: High: Low: Average:
Temperature: 31.5 °F 35.1 °F 1.0 °F 18.4 °F
Dew Point: 28.1 °F 29.2 °F -2.7 °F 13.7 °F
Humidity: 87% 99% 60% 82%
Wind Speed: 6.9mph 8.1mph -999.9mph -23.6mph
Wind Gust: 6.9mph 8.1mph - -
WindENE - -
Pressure: 29.69 in 30.32 in 29.69 in -
Precipitation: 0.01 in      
Historical Graphs
 
 
Tabular Data for February 24, 2018
Time Temperature Dew Point Pressure Wind Wind Speed Wind Gust Humidity Rainfall Rate (Hourly) solar
00:04 9.4 °F 5.5 °F 30.32 in Calm     84% 0.00 in 0.0 W/m2
00:09 9.1 °F 5.2 °F 30.32 in Calm     84% 0.00 in 0.0 W/m2
00:14 9.0 °F 5.4 °F 30.32 in Calm     85% 0.00 in 0.0 W/m2
00:19 8.9 °F 5.3 °F 30.32 in Calm     85% 0.00 in 0.0 W/m2
00:24 8.8 °F 5.2 °F 30.32 in Calm     85% 0.00 in 0.0 W/m2
00:29 8.7 °F 5.1 °F 30.32 in Calm     85% 0.00 in 0.0 W/m2
00:34 8.6 °F 4.8 °F 30.32 in Calm     84% 0.00 in 0.0 W/m2
00:39 8.5 °F 4.9 °F 30.32 in Calm     85% 0.00 in 0.0 W/m2
00:44 8.2 °F 4.4 °F 30.32 in Calm     84% 0.00 in 0.0 W/m2
00:49 7.9 °F 4.1 °F 30.32 in Calm     84% 0.00 in 0.0 W/m2
00:54 7.7 °F 3.9 °F 30.32 in Calm     84% 0.00 in 0.0 W/m2
00:59 7.6 °F 3.8 °F 30.32 in Calm     84% 0.00 in 0.0 W/m2
01:00 7.6 °F 3.8 °F 30.32 in Calm     84% 0.00 in 0.0 W/m2
01:05 7.4 °F 3.6 °F 30.32 in Calm     84% 0.00 in 0.0 W/m2
01:10 7.2 °F 3.4 °F 30.32 in Calm     84% 0.00 in 0.0 W/m2
01:15 6.8 °F 2.7 °F 30.32 in Calm     83% 0.00 in 0.0 W/m2
01:20 6.6 °F 2.5 °F 30.32 in Calm     83% 0.00 in 0.0 W/m2
01:25 6.4 °F 2.3 °F 30.32 in Calm     83% 0.00 in 0.0 W/m2
01:30 6.2 °F 2.1 °F 30.32 in Calm     83% 0.00 in 0.0 W/m2
01:35 5.9 °F 1.8 °F 30.32 in Calm     83% 0.00 in 0.0 W/m2
01:40 5.6 °F 1.6 °F 30.32 in Calm     83% 0.00 in 0.0 W/m2
01:45 5.4 °F 1.4 °F 30.32 in Calm     83% 0.00 in 0.0 W/m2
01:50 5.2 °F 1.2 °F 30.32 in Calm     83% 0.00 in 0.0 W/m2
01:55 4.9 °F 0.9 °F 30.32 in Calm     83% 0.00 in 0.0 W/m2
02:00 4.8 °F 0.8 °F 30.32 in Calm     83% 0.00 in 0.0 W/m2
02:05 4.7 °F 0.7 °F 30.31 in Calm     83% 0.00 in 0.0 W/m2
02:10 4.4 °F 0.4 °F 30.31 in Calm     83% 0.00 in 0.0 W/m2
02:15 4.1 °F 0.1 °F 30.31 in Calm     83% 0.00 in 0.0 W/m2
02:20 3.9 °F -0.1 °F 30.30 in Calm     83% 0.00 in 0.0 W/m2
02:25 3.6 °F -0.7 °F 30.30 in Calm     82% 0.00 in 0.0 W/m2
02:30 3.3 °F -1.0 °F 30.30 in Calm     82% 0.00 in 0.0 W/m2
02:35 3.1 °F -0.9 °F 30.30 in Calm     83% 0.00 in 0.0 W/m2
02:40 2.9 °F -1.1 °F 30.30 in Calm     83% 0.00 in 0.0 W/m2
02:45 2.8 °F -1.2 °F 30.31 in Calm     83% 0.00 in 0.0 W/m2
02:50 2.6 °F -1.6 °F 30.31 in Calm     82% 0.00 in 0.0 W/m2
02:55 2.4 °F -1.6 °F 30.30 in Calm     83% 0.00 in 0.0 W/m2
03:00 2.3 °F -1.7 °F 30.31 in Calm     83% 0.00 in 0.0 W/m2
03:02 2.3 °F -1.7 °F 30.31 in Calm     83% 0.00 in 0.0 W/m2
03:07 2.3 °F -1.7 °F 30.30 in Calm     83% 0.00 in 0.0 W/m2
03:12 2.1 °F -1.9 °F 30.30 in Calm     83% 0.00 in 0.0 W/m2
03:17 1.9 °F -2.3 °F 30.30 in Calm     82% 0.00 in 0.0 W/m2
03:22 1.7 °F -2.5 °F 30.30 in Calm     82% 0.00 in 0.0 W/m2
03:27 1.5 °F -2.5 °F 30.30 in Calm     83% 0.00 in 0.0 W/m2
03:32 1.5 °F -2.5 °F 30.30 in Calm     83% 0.00 in 0.0 W/m2
03:37 1.3 °F -2.7 °F 30.30 in Calm     83% 0.00 in 0.0 W/m2
03:42 1.3 °F -2.4 °F 30.30 in Calm     84% 0.00 in 0.0 W/m2
03:47 1.1 °F -2.6 °F 30.30 in Calm     84% 0.00 in 0.0 W/m2
03:52 1.0 °F -2.7 °F 30.30 in Calm     84% 0.00 in 0.0 W/m2
03:57 1.2 °F -2.5 °F 30.30 in Calm     84% 0.00 in 0.0 W/m2
04:02 1.3 °F -2.2 °F 30.29 in Calm     85% 0.00 in 0.0 W/m2
04:07 1.2 °F -2.5 °F 30.29 in Calm     84% 0.00 in 0.0 W/m2
04:12 1.0 °F -2.7 °F 30.29 in Calm     84% 0.00 in 0.0 W/m2
04:17 1.0 °F -2.7 °F 30.30 in Calm     84% 0.00 in 0.0 W/m2
04:22 1.1 °F -2.4 °F 30.29 in Calm     85% 0.00 in 0.0 W/m2
04:27 1.2 °F -2.3 °F 30.29 in Calm     85% 0.00 in 0.0 W/m2
04:32 1.3 °F -2.2 °F 30.29 in Calm     85% 0.00 in 0.0 W/m2
04:37 1.2 °F -2.3 °F 30.29 in Calm     85% 0.00 in 0.0 W/m2
04:42 1.3 °F -2.2 °F 30.29 in Calm     85% 0.00 in 0.0 W/m2
04:47 1.3 °F -2.2 °F 30.29 in Calm     85% 0.00 in 0.0 W/m2
04:52 1.2 °F -2.3 °F 30.29 in Calm     85% 0.00 in 0.0 W/m2
04:57 1.2 °F -2.3 °F 30.29 in Calm     85% 0.00 in 0.0 W/m2
05:02 1.4 °F -2.1 °F 30.29 in Calm     85% 0.00 in 0.0 W/m2
05:07 1.7 °F -1.5 °F 30.29 in Calm     86% 0.00 in 0.0 W/m2
05:12 2.0 °F -1.0 °F 30.29 in Calm     87% 0.00 in 0.0 W/m2
05:17 2.2 °F -0.8 °F 30.29 in Calm     87% 0.00 in 0.0 W/m2
05:22 2.3 °F -0.7 °F 30.29 in Calm     87% 0.00 in 0.0 W/m2
05:27 2.5 °F -0.2 °F 30.28 in Calm     88% 0.00 in 0.0 W/m2
05:32 2.4 °F -0.3 °F 30.28 in Calm     88% 0.00 in 0.0 W/m2
05:37 2.3 °F -0.7 °F 30.28 in Calm     87% 0.00 in 0.0 W/m2
05:42 2.2 °F -0.8 °F 30.28 in Calm     87% 0.00 in 0.0 W/m2
05:47 2.2 °F -0.8 °F 30.29 in Calm     87% 0.00 in 0.0 W/m2
05:52 2.2 °F -0.8 °F 30.29 in Calm     87% 0.00 in 0.0 W/m2
05:57 2.2 °F -1.0 °F 30.29 in Calm     86% 0.00 in 0.0 W/m2
06:02 2.2 °F -1.0 °F 30.29 in Calm     86% 0.00 in 0.0 W/m2
06:07 2.4 °F -0.6 °F 30.29 in Calm     87% 0.00 in 0.0 W/m2
06:12 2.6 °F -0.4 °F 30.29 in Calm     87% 0.00 in 0.0 W/m2
06:17 2.9 °F -0.1 °F 30.29 in Calm     87% 0.00 in 0.0 W/m2
06:22 3.1 °F 0.1 °F 30.29 in Calm     87% 0.00 in 0.0 W/m2
06:27 3.2 °F 0.0 °F 30.29 in Calm     86% 0.00 in 0.0 W/m2
06:32 3.3 °F 0.1 °F 30.29 in Calm     86% 0.00 in 0.0 W/m2
06:37 3.4 °F 0.2 °F 30.30 in Calm     86% 0.00 in 0.0 W/m2
06:42 3.5 °F 0.3 °F 30.29 in Calm     86% 0.00 in 0.0 W/m2
06:47 3.7 °F 0.7 °F 30.29 in Calm     87% 0.00 in 0.0 W/m2
06:52 4.0 °F 1.0 °F 30.29 in Calm     87% 0.00 in 0.0 W/m2
06:57 4.2 °F 1.2 °F 30.29 in Calm     87% 0.00 in 0.0 W/m2
07:02 4.6 °F 1.6 °F 30.29 in Calm     87% 0.00 in 37.1 W/m2
07:07 4.9 °F 2.1 °F 30.28 in Calm     88% 0.00 in 58.3 W/m2
07:12 5.3 °F 2.5 °F 30.28 in Calm     88% 0.00 in 79.5 W/m2
07:17 5.6 °F 2.8 °F 30.28 in Calm     88% 0.00 in 93.6 W/m2
07:22 6.1 °F 3.6 °F 30.28 in Calm     89% 0.00 in 98.7 W/m2
07:27 6.4 °F 3.9 °F 30.28 in Calm     89% 0.00 in 108.8 W/m2
07:32 6.8 °F 4.2 °F 30.29 in Calm     89% 0.00 in 107.8 W/m2
07:37 7.1 °F 4.5 °F 30.28 in Calm     89% 0.00 in 110.8 W/m2
07:42 7.5 °F 4.9 °F 30.28 in Calm     89% 0.00 in 118.9 W/m2
07:47 7.9 °F 5.3 °F 30.28 in Calm     89% 0.00 in 129.0 W/m2
07:52 8.4 °F 6.1 °F 30.28 in Calm     90% 0.00 in 131.0 W/m2
07:57 8.9 °F 6.6 °F 30.28 in Calm     90% 0.00 in 134.0 W/m2
08:02 9.2 °F 6.9 °F 30.28 in Calm     90% 0.00 in 137.1 W/m2
08:07 9.5 °F 7.2 °F 30.28 in Calm     90% 0.00 in 140.1 W/m2
08:12 10.0 °F 7.7 °F 30.28 in Calm     90% 0.00 in 144.1 W/m2
08:17 10.5 °F 8.1 °F 30.28 in Calm     90% 0.00 in 146.1 W/m2
08:22 10.9 °F 8.5 °F 30.28 in Calm     90% 0.00 in 147.2 W/m2
08:27 10.9 °F 8.3 °F 30.28 in Calm     89% 0.00 in 156.2 W/m2
08:32 11.0 °F 8.4 °F 30.28 in Calm     89% 0.00 in 160.3 W/m2
08:37 11.2 °F 8.8 °F 30.28 in Calm     90% 0.00 in 153.2 W/m2
08:42 11.4 °F 9.0 °F 30.28 in Calm     90% 0.00 in 162.3 W/m2
08:47 11.7 °F 9.3 °F 30.28 in Calm     90% 0.00 in 168.4 W/m2
08:52 12.0 °F 9.6 °F 30.28 in Calm     90% 0.00 in 174.4 W/m2
08:57 12.4 °F 10.0 °F 30.28 in Calm     90% 0.00 in 180.5 W/m2
09:02 12.7 °F 10.3 °F 30.28 in Calm     90% 0.00 in 177.4 W/m2
09:07 13.2 °F 10.8 °F 30.28 in Calm     90% 0.00 in 184.5 W/m2
09:12 13.5 °F 11.1 °F 30.27 in Calm     90% 0.00 in 189.6 W/m2
09:17 13.9 °F 11.8 °F 30.27 in Calm     91% 0.00 in 188.6 W/m2
09:22 14.3 °F 12.2 °F 30.27 in Calm     91% 0.00 in 185.5 W/m2
09:27 14.7 °F 12.6 °F 30.27 in Calm     91% 0.00 in 195.6 W/m2
09:32 15.0 °F 12.8 °F 30.26 in Calm     91% 0.00 in 197.7 W/m2
09:37 15.4 °F 13.2 °F 30.26 in Calm     91% 0.00 in 195.6 W/m2
09:42 15.8 °F 13.6 °F 30.25 in SE 2.0 mph 2.0 mph 91% 0.00 in 192.6 W/m2
09:47 16.3 °F 14.1 °F 30.25 in SE 2.3 mph 2.3 mph 91% 0.00 in 197.7 W/m2
09:54 16.0 °F 15.8 °F 30.27 in North -999.9 mph -999.0 mph 99% 0 in W/m2
09:59 16.7 °F 16.4 °F 30.27 in North -999.9 mph -999.0 mph 99% 0 in W/m2
10:04 17.0 °F 16.3 °F 30.27 in North -999.9 mph -999.0 mph 97% 0 in W/m2
10:09 17.4 °F 16.7 °F 30.27 in North -999.9 mph -999.0 mph 97% 0 in W/m2
10:14 17.9 °F 17.1 °F 30.27 in North -999.9 mph -999.0 mph 97% 0 in W/m2
10:19 18.3 °F 17.3 °F 30.27 in North -999.9 mph -999.0 mph 96% 0 in W/m2
10:24 19.7 °F 17.5 °F 30.24 in East 2.0 mph 2.0 mph 91% 0.00 in 197.7 W/m2
10:29 20.2 °F 18.0 °F 30.23 in SSE 2.3 mph 2.3 mph 91% 0.00 in 218.9 W/m2
10:34 20.7 °F 18.5 °F 30.23 in SSE 2.3 mph 2.3 mph 91% 0.00 in 219.9 W/m2
10:39 21.3 °F 19.1 °F 30.22 in SE 2.3 mph 2.3 mph 91% 0.00 in 214.8 W/m2
10:44 22.1 °F 19.9 °F 30.22 in ESE 1.2 mph 1.2 mph 91% 0.00 in 227.9 W/m2
10:49 22.6 °F 20.1 °F 30.22 in SE 1.2 mph 1.2 mph 90% 0.00 in 226.9 W/m2
10:54 23.3 °F 20.8 °F 30.22 in ENE 3.5 mph 3.5 mph 90% 0.00 in 234.0 W/m2
10:59 24.1 °F 21.9 °F 30.21 in East 3.5 mph 3.5 mph 91% 0.00 in 251.2 W/m2
11:04 24.8 °F 22.0 °F 30.21 in Calm     89% 0.00 in 241.1 W/m2
11:09 25.2 °F 22.1 °F 30.21 in ESE 1.2 mph 1.2 mph 88% 0.00 in 240.1 W/m2
11:14 25.6 °F 22.3 °F 30.21 in SE 3.5 mph 3.5 mph 87% 0.00 in 232.0 W/m2
11:19 25.9 °F 22.3 °F 30.21 in ENE 3.5 mph 3.5 mph 86% 0.00 in 241.1 W/m2
11:24 26.0 °F 22.1 °F 30.21 in East 3.5 mph 3.5 mph 85% 0.00 in 236.0 W/m2
11:29 26.1 °F 22.2 °F 30.21 in ENE 1.2 mph   85% 0.00 in 230.0 W/m2
11:34 26.5 °F 22.6 °F 30.19 in ENE 2.3 mph 2.3 mph 85% 0.00 in 245.1 W/m2
11:39 27.0 °F 23.1 °F 30.19 in ENE 2.0 mph 2.0 mph 85% 0.00 in 258.3 W/m2
11:44 27.7 °F 23.8 °F 30.18 in ESE 3.5 mph 3.5 mph 85% 0.00 in 258.3 W/m2
11:49 28.3 °F 24.1 °F 30.18 in ESE 2.3 mph   84% 0.00 in 242.1 W/m2
11:54 29.1 °F 24.6 °F 30.18 in East 2.3 mph 2.3 mph 83% 0.00 in 257.2 W/m2
11:59 29.6 °F 24.8 °F 30.17 in ESE 1.2 mph   82% 0.00 in 275.4 W/m2
12:04 30.1 °F 25.0 °F 30.16 in ESE 2.3 mph 2.3 mph 81% 0.00 in 257.2 W/m2
12:09 30.5 °F 25.1 °F 30.15 in East 3.5 mph 3.5 mph 80% 0.00 in 252.2 W/m2
12:14 30.8 °F 25.1 °F 30.15 in ESE 2.3 mph 2.3 mph 79% 0.00 in 274.4 W/m2
12:19 31.2 °F 25.7 °F 30.14 in NE 3.5 mph 3.5 mph 80% 0.00 in 285.5 W/m2
12:24 31.6 °F 25.2 °F 30.13 in NE 3.0 mph 3.0 mph 77% 0.00 in 311.8 W/m2
12:29 32.1 °F 25.1 °F 30.12 in NNE 3.5 mph 3.5 mph 75% 0.00 in 310.8 W/m2
12:34 32.5 °F 25.5 °F 30.11 in ESE 3.5 mph 3.5 mph 75% 0.00 in 325.9 W/m2
12:39 32.6 °F 25.2 °F 30.10 in ENE 3.5 mph 3.5 mph 74% 0.00 in 379.4 W/m2
12:44 32.6 °F 25.2 °F 30.10 in East 2.3 mph 2.3 mph 74% 0.00 in 355.2 W/m2
12:49 32.6 °F 25.2 °F 30.09 in NE 3.0 mph 3.0 mph 74% 0.00 in 314.8 W/m2
12:54 32.5 °F 25.1 °F 30.09 in ENE 3.5 mph 3.5 mph 74% 0.00 in 271.4 W/m2
12:59 32.6 °F 25.2 °F 30.08 in East 4.6 mph 4.6 mph 74% 0.00 in 309.8 W/m2
13:04 33.0 °F 25.0 °F 30.08 in ESE 1.2 mph 1.2 mph 72% 0.00 in 286.5 W/m2
13:09 33.5 °F 25.4 °F 30.08 in ENE 3.5 mph 3.5 mph 72% 0.00 in 278.4 W/m2
13:14 33.8 °F 26.1 °F 30.07 in East 3.5 mph 3.5 mph 73% 0.00 in 272.4 W/m2
13:19 34.1 °F 25.0 °F 30.07 in ENE 3.5 mph 3.5 mph 69% 0.00 in 260.3 W/m2
13:24 34.2 °F 26.1 °F 30.07 in SE 3.5 mph 3.5 mph 72% 0.00 in 289.6 W/m2
13:29 34.3 °F 25.5 °F 30.06 in East 1.2 mph 1.2 mph 70% 0.00 in 313.8 W/m2
13:34 34.3 °F 24.8 °F 30.06 in ENE 3.5 mph 3.5 mph 68% 0.00 in 352.2 W/m2
13:39 34.2 °F 24.7 °F 30.06 in ENE 3.5 mph 3.5 mph 68% 0.00 in 316.8 W/m2
13:44 34.2 °F 24.7 °F 30.06 in East 1.0 mph 1.0 mph 68% 0.00 in 305.7 W/m2
13:49 34.3 °F 24.8 °F 30.06 in ESE 2.3 mph 2.3 mph 68% 0.00 in 309.8 W/m2
13:54 34.3 °F 24.8 °F 30.06 in SE 3.5 mph 3.5 mph 68% 0.00 in 319.9 W/m2
13:59 34.4 °F 25.3 °F 30.05 in ESE 3.5 mph 3.5 mph 69% 0.00 in 279.5 W/m2
14:04 34.4 °F 24.6 °F 30.04 in ESE 2.3 mph 2.3 mph 67% 0.00 in 279.5 W/m2
14:09 34.5 °F 25.7 °F 30.04 in SE 3.5 mph 3.5 mph 70% 0.00 in 292.6 W/m2
14:14 34.5 °F 25.4 °F 30.04 in Calm   0.1 mph 69% 0.00 in 271.4 W/m2
14:19 34.6 °F 25.8 °F 30.03 in ENE 3.5 mph 3.5 mph 70% 0.00 in 286.5 W/m2
14:24 34.6 °F 25.5 °F 30.02 in ENE 2.3 mph 2.3 mph 69% 0.00 in 294.6 W/m2
14:29 34.7 °F 24.1 °F 30.02 in ENE 2.3 mph 2.3 mph 65% 0.00 in 281.5 W/m2
14:34 35.0 °F 24.0 °F 30.00 in ENE 3.5 mph 3.5 mph 64% 0.00 in 311.8 W/m2
14:39 35.1 °F 24.1 °F 30.00 in ENE 2.3 mph 2.3 mph 64% 0.00 in 313.8 W/m2
14:44 35.0 °F 24.4 °F 30.00 in Calm     65% 0.00 in 304.7 W/m2
14:49 34.8 °F 24.2 °F 30.00 in ENE 2.3 mph 2.3 mph 65% 0.00 in 267.3 W/m2
14:54 34.8 °F 23.5 °F 29.99 in ENE 3.5 mph 3.5 mph 63% 0.00 in 271.4 W/m2
14:59 34.8 °F 23.1 °F 29.99 in ENE 2.3 mph 2.3 mph 62% 0.00 in 262.3 W/m2
15:04 34.8 °F 22.7 °F 29.98 in ESE 2.3 mph 2.3 mph 61% 0.00 in 287.5 W/m2
15:06 34.8 °F 23.1 °F 29.98 in ESE 2.0 mph 2.0 mph 62% 0.00 in 287.5 W/m2
15:11 34.8 °F 23.1 °F 29.98 in ESE 2.3 mph 2.3 mph 62% 0.00 in 274.4 W/m2
15:16 34.8 °F 22.3 °F 29.98 in East 3.5 mph 3.5 mph 60% 0.00 in 275.4 W/m2
15:21 34.8 °F 23.1 °F 29.97 in ENE 3.5 mph 3.5 mph 62% 0.00 in 271.4 W/m2
15:26 34.8 °F 23.1 °F 29.97 in ENE 3.5 mph 3.5 mph 62% 0.00 in 262.3 W/m2
15:29 34.8 °F 24.2 °F 29.97 in ENE 2.3 mph 2.3 mph 65% 0.00 in 254.2 W/m2
15:34 34.8 °F 23.9 °F 29.97 in ENE 2.3 mph 2.3 mph 64% 0.00 in 250.2 W/m2
15:39 34.8 °F 23.9 °F 29.96 in ENE 2.3 mph 2.3 mph 64% 0.00 in 260.3 W/m2
15:44 34.7 °F 23.4 °F 29.95 in ENE 2.3 mph 2.3 mph 63% 0.00 in 257.2 W/m2
15:49 34.6 °F 24.0 °F 29.95 in ENE 2.3 mph 2.3 mph 65% 0.00 in 250.2 W/m2
15:54 34.5 °F 25.4 °F 29.94 in ENE 1.2 mph 1.2 mph 69% 0.00 in 258.3 W/m2
15:59 34.4 °F 24.2 °F 29.94 in ENE 2.3 mph 2.3 mph 66% 0.00 in 233.0 W/m2
16:00 34.4 °F 24.2 °F 29.94 in ENE 2.3 mph 2.3 mph 66% 0.00 in 233.0 W/m2
16:01 34.4 °F 24.6 °F 29.93 in ENE 2.3 mph 2.3 mph 67% 0.00 in 233.0 W/m2
16:06 34.3 °F 26.2 °F 29.93 in ENE 1.2 mph 1.2 mph 72% 0.00 in 205.7 W/m2
16:11 34.0 °F 25.9 °F 29.93 in ESE 2.3 mph 2.3 mph 72% 0.00 in 208.8 W/m2
16:16 33.9 °F 27.1 °F 29.93 in ESE 1.2 mph 1.2 mph 76% 0.00 in 225.9 W/m2
16:21 33.8 °F 25.4 °F 29.94 in ESE 2.3 mph 2.3 mph 71% 0.00 in 256.2 W/m2
16:26 34.0 °F 25.6 °F 29.93 in ESE 2.3 mph 2.3 mph 71% 0.00 in 224.9 W/m2
16:27 34.0 °F 25.2 °F 29.93 in ESE 1.2 mph 1.2 mph 70% 0.00 in 224.9 W/m2
16:32 34.1 °F 25.3 °F 29.92 in ESE 2.3 mph 2.3 mph 70% 0.00 in 243.1 W/m2
16:33 34.2 °F 25.8 °F 29.92 in ESE 2.3 mph 2.3 mph 71% 0.00 in 227.9 W/m2
16:38 34.1 °F 25.7 °F 29.92 in ESE 2.3 mph 2.3 mph 71% 0.00 in 204.7 W/m2
16:41 34.1 °F 26.3 °F 29.92 in Calm     73% 0.00 in 204.7 W/m2
16:46 34.0 °F 25.9 °F 29.92 in East 1.2 mph 1.2 mph 72% 0.00 in 224.9 W/m2
16:51 33.8 °F 26.1 °F 29.91 in East 2.3 mph 2.3 mph 73% 0.00 in 208.8 W/m2
16:55 33.7 °F 26.0 °F 29.91 in East 2.3 mph 2.3 mph 73% 0.00 in 196.6 W/m2
17:00 33.7 °F 26.3 °F 29.90 in East 2.3 mph 2.3 mph 74% 0.00 in 168.4 W/m2
17:05 33.5 °F 26.1 °F 29.88 in ENE 5.0 mph 5.0 mph 74% 0.00 in 148.2 W/m2
17:10 32.9 °F 28.6 °F 29.87 in ENE 3.5 mph 3.5 mph 84% 0.00 in 144.1 W/m2
17:15 32.2 °F 28.8 °F 29.88 in ENE 2.3 mph 2.3 mph 87% 0.00 in 135.0 W/m2
17:20 31.8 °F 28.9 °F 29.87 in East 2.3 mph 2.3 mph 89% 0.00 in 120.9 W/m2
17:25 31.5 °F 28.9 °F 29.86 in ENE 3.5 mph 3.5 mph 90% 0.00 in 139.1 W/m2
17:30 31.4 °F 28.8 °F 29.86 in ESE 3.5 mph 3.5 mph 90% 0.00 in 148.2 W/m2
17:35 31.3 °F 29.0 °F 29.85 in ENE 2.3 mph 2.3 mph 91% 0.00 in 133.0 W/m2
17:40 31.3 °F 29.0 °F 29.83 in ENE 8.1 mph 8.1 mph 91% 0.00 in 120.9 W/m2
17:45 31.3 °F 29.2 °F 29.82 in ENE 3.5 mph 3.5 mph 92% 0.00 in 97.7 W/m2
17:50 31.3 °F 29.2 °F 29.81 in NE 4.0 mph 4.0 mph 92% 0.00 in 0.0 W/m2
17:51 31.3 °F 29.2 °F 29.81 in ENE 5.0 mph 5.0 mph 92% 0.00 in 0.0 W/m2
17:56 31.3 °F 29.2 °F 29.81 in ENE 4.6 mph 4.6 mph 92% 0.00 in 0.0 W/m2
18:01 31.3 °F 29.0 °F 29.79 in ENE 3.5 mph 3.5 mph 91% 0.00 in 0.0 W/m2
18:06 31.3 °F 29.0 °F 29.78 in ENE 6.9 mph 6.9 mph 91% 0.00 in 0.0 W/m2
18:11 31.3 °F 29.0 °F 29.78 in ENE 3.5 mph 3.5 mph 91% 0.00 in 0.0 W/m2
18:16 31.2 °F 28.9 °F 29.76 in ENE 8.1 mph 8.1 mph 91% 0.00 in 0.0 W/m2
18:21 31.2 °F 28.6 °F 29.75 in NE 6.9 mph 6.9 mph 90% 0.00 in 0.0 W/m2
18:26 31.3 °F 28.7 °F 29.74 in NE 5.8 mph 5.8 mph 90% 0.00 in 0.0 W/m2
18:31 31.3 °F 28.7 °F 29.73 in NE 4.0 mph 4.0 mph 90% 0.00 in 0.0 W/m2
18:36 31.4 °F 28.8 °F 29.72 in NE 4.6 mph 4.6 mph 90% 0.00 in 0.0 W/m2
18:41 31.5 °F 28.6 °F 29.71 in ENE 8.1 mph 8.1 mph 89% 0.00 in 0.0 W/m2
18:46 31.6 °F 28.5 °F 29.70 in NE 6.9 mph 6.9 mph 88% 0.00 in 0.0 W/m2
18:51 31.7 °F 28.6 °F 29.70 in ENE 7.0 mph 7.0 mph 88% 0.00 in 0.0 W/m2
18:56 31.7 °F 28.3 °F 29.71 in NE 3.5 mph 3.5 mph 87% 0.00 in 0.0 W/m2
19:01 31.7 °F 28.3 °F 29.71 in ENE 6.9 mph 6.9 mph 87% 0.01 in 0.0 W/m2
19:06 31.8 °F 28.1 °F 29.70 in NE 4.6 mph 4.6 mph 86% 0.01 in 0.0 W/m2
19:11 31.7 °F 28.3 °F 29.69 in East 3.5 mph 3.5 mph 87% 0.01 in 0.0 W/m2
19:16 31.6 °F 28.2 °F 29.69 in East 3.5 mph 3.5 mph 87% 0.01 in 0.0 W/m2
19:21 31.5 °F 28.1 °F 29.69 in ENE 6.9 mph 6.9 mph 87% 0.01 in 0.0 W/m2
Winter, Wisconsin USA
Compliments of Weather Underground - 4 mb